Layton, FL (33001)

4:32 PM EDT on July 29, 2016 (GMT -0400)
APRSWXNET | | Change Station

Elev 49 ft 24.84 °N, 80.79 °W | Updated 2 hours ago

Mostly Cloudy
Mostly Cloudy
96 °F
Feels Like 120 °F
N
0
Wind Variable Wind from NNW
Gusts 0.0 mph

Today
High -- | Low -- °F
--% Chance of Precip.
Yesterday
High -- | Low -- °F
Precip. -- in
Pressure 30.03 in
Visibility 10.0 miles
Clouds Few 12000 ft
Scattered Clouds 15000 ft
Scattered Clouds 17000 ft
Mostly Cloudy 21000 ft
Heat Index 120 °F
Dew Point 82 °F
Humidity 64%
Rainfall in
Snow Depth Not available.
6:50 AM 8:09 PM
Waning Crescent, 19% visible
METAR KHST 291958Z AUTO 36002KT 10SM FEW120 SCT150 SCT170 BKN210 29/19 A3002 RMK AO2 LTG DSNT W RAE12 TSE11 SLP169 P0001 T02920193
Pressure 30.03 in
Visibility 10.0 miles
Clouds Few 12000 ft
Scattered Clouds 15000 ft
Scattered Clouds 17000 ft
Mostly Cloudy 21000 ft
Heat Index 120 °F
Dew Point 82 °F
Humidity 64%
Rainfall in
Snow Depth Not available.
6:50 AM 8:09 PM
Waning Crescent, 19% visible
METAR KHST 291958Z AUTO 36002KT 10SM FEW120 SCT150 SCT170 BKN210 29/19 A3002 RMK AO2 LTG DSNT W RAE12 TSE11 SLP169 P0001 T02920193

10-Day Weather Forecast

Almanac

Astronomy

Jul. 29, 2016 Rise Set
Actual Time
Civil Twilight
Nautical Twilight
Astronomical Twilight
Moon
Length of Visible Light
Length of Day
Tomorrow will be .
, % of the Moon is Illuminated

Today's Extremes

State Highs State Lows

Community

WunderPhotos

Upload Photos

1,928,407 photos uploaded!

WunderBlog® & News

Nearby

Air Quality

  Air Quality AQ Index Pollutant
Not available.

Snow Depth

Station Depth Elevation

Earthquake Activity

City Distance Mag. Time & Date
Minimum magnitude displayed is 2.5.

Coastal Water Temperatures

Place Temperature

Stations

Nearby Weather Stations

Station Location Temp. Windchill Dew Point Humidity Wind Precip. Elev Updated Type
                   

Watches & Warnings

There are currently no watches in effect.